Time;durP1;ratioP1;P1;durP2;ratioP2;P2;SDS_P1;SDS_P2;PMS_P1;PMS_P2;Temp;Humidity;BMP_temperature;BMP_pressure;BME280_temperature;BME280_humidity;BME280_pressure;Samples;Min_cycle;Max_cycle;Signal;HPM_P1;HPM_P2
2022/12/03 00:01:53;;;;;;;19.02;11.50;;;;;;;7.73;95.45;100584.72;5033512;28;20033;-37
2022/12/03 00:04:18;;;;;;;19.80;11.57;;;;;;;7.57;96.80;100586.38;5033485;28;20080;-37
2022/12/03 00:06:44;;;;;;;21.27;11.32;;;;;;;7.70;95.34;100583.25;5033279;28;20052;-36
2022/12/03 00:09:09;;;;;;;22.00;11.60;;;;;;;7.71;95.37;100589.38;5033711;28;20029;-36
2022/12/03 00:11:34;;;;;;;20.33;11.20;;;;;;;7.83;95.52;100588.88;5033921;28;20029;-36
2022/12/03 00:14:00;;;;;;;22.00;11.90;;;;;;;7.98;93.83;100590.91;5034006;28;20017;-36
2022/12/03 00:16:25;;;;;;;21.38;11.50;;;;;;;7.86;94.36;100589.53;5032692;28;20401;-36
2022/12/03 00:18:51;;;;;;;19.70;11.23;;;;;;;7.76;93.33;100587.88;5033645;28;20041;-36
2022/12/03 00:21:16;;;;;;;22.55;11.10;;;;;;;7.56;94.78;100562.72;5032338;28;20029;-37
2022/12/03 00:23:41;;;;;;;19.30;11.63;;;;;;;7.79;95.48;100598.16;5033608;28;20454;-36
2022/12/03 00:26:07;;;;;;;19.02;10.88;;;;;;;7.71;94.67;100595.50;5033269;28;20552;-36
2022/12/03 00:28:32;;;;;;;18.35;10.82;;;;;;;7.77;94.41;100605.44;5033513;28;20036;-36
2022/12/03 00:30:58;;;;;;;19.10;10.00;;;;;;;7.74;94.84;100604.94;5034054;28;20021;-35
2022/12/03 00:33:23;;;;;;;16.13;10.27;;;;;;;7.74;93.63;100611.06;5033705;28;20489;-36
2022/12/03 00:35:48;;;;;;;20.80;11.00;;;;;;;7.65;94.43;100612.03;5033563;28;20091;-37
2022/12/03 00:38:14;;;;;;;16.23;10.57;;;;;;;7.63;95.15;100608.72;5033538;28;20382;-37
2022/12/03 00:40:40;;;;;;;17.88;10.25;;;;;;;7.72;95.50;100617.53;5033954;28;20409;-37
2022/12/03 00:43:05;;;;;;;18.35;10.25;;;;;;;7.63;94.67;100617.53;5033139;28;20437;-36
2022/12/03 00:45:30;;;;;;;18.90;11.10;;;;;;;7.90;93.39;100615.56;5033307;28;20057;-35
2022/12/03 00:47:56;;;;;;;20.45;10.40;;;;;;;7.90;92.67;100612.91;5033130;28;20096;-37
2022/12/03 00:50:21;;;;;;;17.85;9.90;;;;;;;7.81;93.14;100612.06;5033578;28;20108;-37
2022/12/03 00:52:48;;;;;;;19.02;10.05;;;;;;;8.04;92.47;100614.09;5032934;28;20088;-37
2022/12/03 00:55:14;;;;;;;18.52;10.27;;;;;;;8.11;91.58;100612.44;5032103;28;20025;-37
2022/12/03 00:57:40;;;;;;;19.80;10.57;;;;;;;7.96;92.54;100617.56;5032812;28;20022;-37
2022/12/03 01:00:07;;;;;;;15.68;8.95;;;;;;;7.80;93.33;100626.31;5032689;28;20017;-37
2022/12/03 01:02:32;;;;;;;16.10;9.27;;;;;;;7.88;92.83;100622.00;5032653;28;20029;-37
2022/12/03 01:04:58;;;;;;;17.40;9.68;;;;;;;7.78;93.57;100630.13;5033072;28;20040;-37
2022/12/03 01:07:23;;;;;;;13.50;8.52;;;;;;;7.83;92.65;100626.00;5032714;28;20029;-37
2022/12/03 01:09:48;;;;;;;16.85;9.45;;;;;;;7.99;91.93;100633.13;5032806;28;20100;-37
2022/12/03 01:12:14;;;;;;;15.52;9.85;;;;;;;7.92;92.46;100625.97;5033022;28;20024;-37
2022/12/03 01:14:39;;;;;;;17.42;9.65;;;;;;;7.70;93.17;100627.47;5032891;28;20028;-37
2022/12/03 01:17:05;;;;;;;17.80;9.82;;;;;;;7.64;93.51;100628.94;5032509;28;20025;-37
2022/12/03 01:19:32;;;;;;;15.88;9.60;;;;;;;7.55;93.64;100627.25;5032646;28;20311;-38
2022/12/03 01:21:58;;;;;;;15.68;9.70;;;;;;;7.58;93.75;100630.44;5032684;28;20029;-38
2022/12/03 01:24:23;;;;;;;17.48;9.30;;;;;;;7.61;93.53;100639.84;5032226;28;20051;-37
2022/12/03 01:26:49;;;;;;;17.00;10.18;;;;;;;7.50;94.66;100645.44;5032314;28;20037;-37
2022/12/03 01:29:14;;;;;;;17.83;9.30;;;;;;;7.58;93.42;100638.38;5032554;28;20022;-37
2022/12/03 01:34:24;;;;;;;19.65;9.48;;;;;;;7.72;92.45;100631.59;5032787;28;20060;-37
2022/12/03 01:36:51;;;;;;;18.15;10.50;;;;;;;7.75;92.25;100633.09;5032577;28;20045;-37
2022/12/03 01:39:17;;;;;;;20.55;10.68;;;;;;;8.05;91.18;100634.28;5032538;28;20049;-37
2022/12/03 01:41:42;;;;;;;22.02;10.55;;;;;;;7.81;91.41;100640.41;5032412;28;20504;-36
2022/12/03 01:44:22;;;;;;;20.77;10.88;;;;;;;7.63;92.61;100640.53;5032270;28;20452;-36
2022/12/03 01:46:48;;;;;;;18.42;9.43;;;;;;;7.76;91.69;100638.22;5032176;28;20033;-37
2022/12/03 01:49:27;;;;;;;19.42;9.70;;;;;;;7.73;91.53;100630.63;5032478;28;20017;-37
2022/12/03 01:51:53;;;;;;;19.85;9.07;;;;;;;7.70;91.50;100649.47;5031966;28;20375;-37
2022/12/03 01:54:24;;;;;;;20.95;9.85;;;;;;;7.59;92.09;100641.84;5032036;28;20080;-37
2022/12/03 01:56:50;;;;;;;18.60;9.40;;;;;;;7.52;93.80;100649.63;5031983;28;20029;-37
2022/12/03 01:59:18;;;;;;;19.42;10.02;;;;;;;7.66;92.48;100650.81;5032220;28;20043;-37
2022/12/03 02:01:43;;;;;;;17.25;9.15;;;;;;;7.44;92.29;100650.44;5031686;28;20136;-37
2022/12/03 02:04:13;;;;;;;19.98;9.43;;;;;;;7.35;93.43;100661.97;5031356;28;20028;-37
2022/12/03 02:06:39;;;;;;;18.65;9.02;;;;;;;7.43;92.74;100662.00;5031555;28;20017;-35
2022/12/03 02:09:07;;;;;;;13.98;8.80;;;;;;;7.32;94.37;100651.69;5031403;28;20021;-38
2022/12/03 02:11:36;;;;;;;17.75;9.23;;;;;;;7.56;94.02;100650.94;5031036;28;20032;-38
2022/12/03 02:14:07;;;;;;;16.57;9.43;;;;;;;7.58;93.51;100653.44;5031983;28;20021;-38
2022/12/03 02:16:34;;;;;;;16.05;9.07;;;;;;;7.45;93.00;100664.50;5031677;28;20268;-38
2022/12/03 02:19:00;;;;;;;24.10;10.57;;;;;;;7.64;92.86;100652.78;5031532;28;20029;-36
2022/12/03 02:21:49;;;;;;;18.90;9.20;;;;;;;7.58;92.64;100664.84;5031677;28;20027;-37
2022/12/03 02:24:14;;;;;;;17.10;9.32;;;;;;;7.42;92.64;100657.72;5031353;28;20021;-37
2022/12/03 02:26:40;;;;;;;16.30;8.90;;;;;;;7.36;94.07;100655.66;5031466;28;20121;-36
2022/12/03 02:29:05;;;;;;;16.52;8.35;;;;;;;7.36;93.67;100649.56;5031365;28;20091;-36
2022/12/03 02:31:31;;;;;;;19.23;9.10;;;;;;;7.46;93.79;100660.00;5031678;28;20057;-37
2022/12/03 02:33:57;;;;;;;21.30;9.27;;;;;;;7.37;93.67;100670.59;5031424;28;20025;-37
2022/12/03 02:36:23;;;;;;;20.05;8.23;;;;;;;7.36;94.55;100670.75;5031240;28;20036;-37
2022/12/03 02:38:49;;;;;;;22.80;10.02;;;;;;;7.44;94.08;100668.09;5031449;28;20091;-37
2022/12/03 02:44:04;;;;;;;21.35;9.25;;;;;;;7.36;93.98;100660.97;5030923;28;20079;-42
2022/12/03 02:46:30;;;;;;;22.38;10.45;;;;;;;7.35;94.83;100661.97;5031092;28;20030;-37
2022/12/03 02:48:57;;;;;;;30.63;12.45;;;;;;;7.42;94.24;100667.44;5031058;28;20381;-37
2022/12/03 02:51:23;;;;;;;29.38;11.35;;;;;;;7.16;95.75;100656.91;5031245;28;20427;-37
2022/12/03 02:53:50;;;;;;;27.05;11.25;;;;;;;7.31;94.61;100668.59;5031156;28;20501;-38
2022/12/03 02:56:21;;;;;;;36.72;13.23;;;;;;;7.43;93.72;100671.75;5030775;28;20397;-37
2022/12/03 02:58:50;;;;;;;36.35;13.00;;;;;;;7.34;94.45;100670.06;5031273;28;20030;-37
2022/12/03 03:01:16;;;;;;;35.88;12.60;;;;;;;7.33;94.14;100658.66;5031222;28;20144;-36
2022/12/03 03:03:44;;;;;;;41.97;13.50;;;;;;;7.41;94.41;100656.03;5030698;28;20033;-37
2022/12/03 03:06:10;;;;;;;44.33;13.18;;;;;;;7.55;93.34;100662.53;5030751;28;20473;-37
2022/12/03 03:08:38;;;;;;;36.13;12.45;;;;;;;7.48;93.07;100656.19;5029235;28;20036;-37
2022/12/03 03:11:03;;;;;;;42.13;13.57;;;;;;;7.40;94.48;100661.47;5030987;28;20028;-37
2022/12/03 03:13:31;;;;;;;45.65;14.02;;;;;;;7.32;94.99;100643.75;5030864;28;20104;-36
2022/12/03 03:15:57;;;;;;;36.70;12.77;;;;;;;7.19;95.29;100648.66;5030818;28;20029;-37
2022/12/03 03:18:22;;;;;;;38.35;13.77;;;;;;;7.25;94.77;100655.97;5034519;28;20359;-37
2022/12/03 03:20:48;;;;;;;44.25;13.98;;;;;;;7.20;94.14;100658.28;5034861;28;20032;-35
2022/12/03 03:23:17;;;;;;;46.80;15.18;;;;;;;7.26;95.81;100659.47;5034587;28;20112;-35
2022/12/03 03:25:57;;;;;;;52.65;16.05;;;;;;;7.33;94.97;100666.59;5034302;28;20077;-36
2022/12/03 03:28:24;;;;;;;42.30;14.18;;;;;;;7.30;94.54;100664.25;5034620;28;20070;-36
2022/12/03 03:30:49;;;;;;;46.60;14.55;;;;;;;7.44;93.58;100663.66;5033347;28;20513;-36
2022/12/03 03:33:15;;;;;;;39.90;13.85;;;;;;;7.35;93.98;100666.41;5034683;28;20056;-36
2022/12/03 03:35:42;;;;;;;35.00;13.07;;;;;;;7.22;94.85;100661.59;5034620;28;20026;-36
2022/12/03 03:38:08;;;;;;;42.08;13.05;;;;;;;7.41;94.58;100673.75;5032991;28;20437;-36
2022/12/03 03:40:34;;;;;;;43.50;14.13;;;;;;;7.49;94.30;100672.94;5034840;28;20108;-36
2022/12/03 03:43:00;;;;;;;42.13;14.00;;;;;;;7.34;94.49;100670.06;5034343;28;20105;-36
2022/12/03 03:45:26;;;;;;;36.70;12.30;;;;;;;7.21;95.04;100678.44;5034537;28;20053;-36
2022/12/03 03:47:52;;;;;;;38.88;12.20;;;;;;;7.27;94.53;100677.81;5034353;28;20025;-36
2022/12/03 03:50:18;;;;;;;37.53;13.32;;;;;;;7.44;94.26;100684.00;5034514;28;20219;-36
2022/12/03 03:52:45;;;;;;;36.10;12.70;;;;;;;7.72;93.32;100684.59;5034372;28;20456;-36
2022/12/03 03:55:11;;;;;;;34.28;11.93;;;;;;;7.46;93.77;100681.19;5034188;28;20025;-37
2022/12/03 03:57:38;;;;;;;36.72;12.68;;;;;;;7.34;94.33;100693.91;5034535;28;20056;-36
2022/12/03 04:00:06;;;;;;;35.08;12.00;;;;;;;7.57;94.02;100697.63;5034083;28;20054;-37
2022/12/03 04:02:33;;;;;;;34.92;12.73;;;;;;;7.52;93.36;100692.00;5033896;28;20051;-36
2022/12/03 04:04:59;;;;;;;38.83;12.68;;;;;;;7.41;93.95;100690.47;5034216;28;20162;-36
2022/12/03 04:07:24;;;;;;;35.80;12.75;;;;;;;7.63;92.86;100702.31;5033913;28;20022;-36
2022/12/03 04:09:50;;;;;;;38.83;12.55;;;;;;;7.50;93.61;100701.94;5034098;28;20106;-35
2022/12/03 04:14:59;;;;;;;39.45;12.38;;;;;;;7.38;93.83;100701.34;5033766;28;20036;-35
2022/12/03 04:17:25;;;;;;;34.80;12.43;;;;;;;7.35;94.41;100699.03;5034106;28;20021;-36
2022/12/03 04:19:51;;;;;;;38.13;12.48;;;;;;;7.23;95.42;100702.94;5033519;28;20017;-36
2022/12/03 04:30:28;;;;;;;43.70;14.43;;;;;;;7.34;95.44;100704.50;5033683;28;20099;-36
2022/12/03 04:35:43;;;;;;;58.25;17.77;;;;;;;7.49;94.34;100715.31;5033836;28;20532;-43
2022/12/03 04:38:10;;;;;;;54.35;17.85;;;;;;;7.51;93.79;100708.03;5033523;28;20021;-43
2022/12/03 04:43:19;;;;;;;62.30;18.33;;;;;;;7.50;93.09;100724.91;5033476;28;20072;-42
2022/12/03 04:45:45;;;;;;;63.65;19.08;;;;;;;7.53;93.64;100724.59;5033397;28;20112;-44
2022/12/03 04:48:10;;;;;;;65.82;20.50;;;;;;;7.35;94.82;100719.38;5033125;28;20026;-43
2022/12/03 04:50:35;;;;;;;67.63;19.85;;;;;;;7.56;94.24;100713.69;5033255;28;20037;-44
2022/12/03 04:53:01;;;;;;;78.07;20.30;;;;;;;7.47;93.76;100715.47;5033305;28;20021;-43
2022/12/03 04:55:26;;;;;;;93.25;26.05;;;;;;;7.41;94.46;100719.59;5033319;28;20037;-43
2022/12/03 04:57:52;;;;;;;72.10;21.70;;;;;;;7.39;94.32;100713.63;5033071;28;20025;-43
2022/12/03 05:00:17;;;;;;;72.38;19.80;;;;;;;7.22;95.06;100714.53;5032745;28;20075;-44
2022/12/03 05:02:43;;;;;;;79.68;20.42;;;;;;;7.24;95.37;100716.03;5032930;28;20033;-43
2022/12/03 05:05:09;;;;;;;81.88;21.00;;;;;;;7.35;95.04;100708.78;5032395;28;20022;-44
2022/12/03 05:07:35;;;;;;;86.55;21.17;;;;;;;7.29;95.67;100715.56;5032908;28;20022;-44
2022/12/03 05:10:00;;;;;;;95.28;21.73;;;;;;;7.44;94.58;100716.63;5032765;28;20027;-45
2022/12/03 05:12:25;;;;;;;88.30;20.70;;;;;;;7.48;94.55;100716.31;5032700;28;20397;-44
2022/12/03 05:14:51;;;;;;;85.72;20.50;;;;;;;7.24;95.79;100710.75;5032445;28;20101;-43
2022/12/03 05:17:16;;;;;;;78.53;20.60;;;;;;;7.19;95.95;100722.78;5032769;28;20079;-43
2022/12/03 05:22:26;;;;;;;72.22;18.30;;;;;;;7.14;95.25;100730.38;5032694;28;20099;-44
2022/12/03 05:24:51;;;;;;;79.70;19.70;;;;;;;7.42;94.56;100739.81;5032473;28;20057;-44
2022/12/03 05:27:17;;;;;;;62.22;15.77;;;;;;;7.34;93.86;100741.56;5032505;28;20022;-36
2022/12/03 05:29:42;;;;;;;61.97;16.10;;;;;;;7.40;94.06;100744.41;5032012;28;20034;-36
2022/12/03 05:32:07;;;;;;;70.57;16.20;;;;;;;7.47;94.08;100744.63;5032218;28;20488;-36
2022/12/03 05:34:33;;;;;;;59.38;14.93;;;;;;;7.34;94.26;100738.91;5031651;28;20084;-37
2022/12/03 05:36:58;;;;;;;57.50;14.27;;;;;;;7.39;94.17;100745.41;5032444;28;20021;-35
2022/12/03 05:39:23;;;;;;;54.42;13.88;;;;;;;7.30;94.79;100751.66;5031424;28;20481;-36
2022/12/03 05:44:33;;;;;;;54.97;14.32;;;;;;;7.51;94.38;100753.06;5032129;28;20068;-35
2022/12/03 05:46:58;;;;;;;50.78;14.52;;;;;;;7.55;93.88;100754.41;5032103;28;20100;-35
2022/12/03 05:49:23;;;;;;;110.65;40.90;;;;;;;7.43;93.57;100757.34;5031727;28;20481;-36
2022/12/03 05:51:49;;;;;;;51.72;13.60;;;;;;;7.33;93.61;100754.00;5032014;28;20123;-36
2022/12/03 05:54:14;;;;;;;42.28;13.10;;;;;;;7.48;93.65;100751.56;5032043;28;20043;-36
2022/12/03 05:56:39;;;;;;;43.53;11.68;;;;;;;7.42;93.57;100757.50;5032009;28;20025;-36
2022/12/03 05:59:05;;;;;;;42.38;12.45;;;;;;;7.39;93.37;100756.00;5030490;28;20079;-34
2022/12/03 06:01:30;;;;;;;41.50;11.63;;;;;;;7.33;94.37;100754.00;5031976;28;20107;-37
2022/12/03 06:03:56;;;;;;;29.58;9.85;;;;;;;7.55;94.49;100754.41;5031603;28;20021;-36
2022/12/03 06:06:21;;;;;;;30.95;9.73;;;;;;;7.53;94.02;100761.69;5031977;28;20107;-36
2022/12/03 06:08:46;;;;;;;31.98;11.02;;;;;;;7.50;93.76;100770.78;5031157;28;20075;-36
2022/12/03 06:11:12;;;;;;;34.75;10.18;;;;;;;7.52;93.38;100776.75;5031573;28;20022;-36
2022/12/03 06:13:37;;;;;;;23.23;8.27;;;;;;;7.44;92.99;100782.00;5031539;28;20021;-36
2022/12/03 06:16:03;;;;;;;15.68;7.53;;;;;;;7.47;92.96;100780.88;5031574;28;20017;-36
2022/12/03 06:18:28;;;;;;;17.77;7.03;;;;;;;7.21;93.10;100776.41;5031793;28;20099;-37
2022/12/03 06:20:53;;;;;;;17.65;7.57;;;;;;;7.29;93.30;100780.91;5031409;28;20022;-36
2022/12/03 06:23:19;;;;;;;15.75;7.63;;;;;;;7.42;92.43;100776.88;5030913;28;20414;-36
2022/12/03 06:25:44;;;;;;;14.40;7.15;;;;;;;7.42;92.33;100779.53;5031166;28;20069;-38
2022/12/03 06:28:10;;;;;;;16.38;7.10;;;;;;;7.44;93.03;100780.19;5031272;28;20025;-36
2022/12/03 06:30:35;;;;;;;36.50;18.77;;;;;;;7.51;91.63;100785.69;5031372;28;20101;-36
2022/12/03 06:33:00;;;;;;;18.15;8.50;;;;;;;7.30;93.49;100778.13;5031505;28;20021;-36
2022/12/03 06:35:26;;;;;;;14.23;7.38;;;;;;;7.55;92.24;100787.03;5031038;28;20143;-37
2022/12/03 06:37:51;;;;;;;11.90;7.25;;;;;;;7.47;91.95;100783.53;5030969;28;20167;-36
2022/12/03 06:40:17;;;;;;;13.10;6.90;;;;;;;7.52;92.48;100792.66;5031236;28;20086;-36
2022/12/03 06:42:42;;;;;;;13.13;6.72;;;;;;;7.46;91.61;100784.50;5028912;28;20036;-36
2022/12/03 06:45:08;;;;;;;12.18;6.50;;;;;;;7.47;92.09;100788.81;5030846;28;20026;-36
2022/12/03 06:47:34;;;;;;;13.93;6.63;;;;;;;7.70;91.44;100794.38;5030787;28;20049;-36
2022/12/03 06:49:59;;;;;;;14.38;7.03;;;;;;;7.56;91.81;100782.56;5030356;28;20025;-36
2022/12/03 06:52:24;;;;;;;13.68;6.65;;;;;;;7.52;91.28;100792.66;5030440;28;20021;-36
2022/12/03 06:54:50;;;;;;;11.20;6.82;;;;;;;7.60;91.31;100792.69;5029692;28;20018;-36
2022/12/03 06:57:15;;;;;;;11.38;6.35;;;;;;;7.40;91.45;100799.19;5031004;28;20033;-36
2022/12/03 06:59:41;;;;;;;11.48;6.63;;;;;;;7.41;91.74;100800.88;5029198;28;20025;-36
2022/12/03 07:02:06;;;;;;;11.35;6.18;;;;;;;7.61;90.61;100804.94;5029062;28;20565;-36
2022/12/03 07:04:31;;;;;;;13.23;6.65;;;;;;;7.62;90.53;100805.78;5029747;28;20017;-36
2022/12/03 07:06:57;;;;;;;13.93;6.72;;;;;;;7.69;90.09;100800.66;5030389;28;20021;-36
2022/12/03 07:09:22;;;;;;;13.52;7.15;;;;;;;7.64;91.17;100804.63;5030681;28;20021;-37
2022/12/03 07:11:48;;;;;;;14.32;6.45;;;;;;;7.86;90.61;100806.88;5030594;28;20021;-37
2022/12/03 07:14:16;;;;;;;15.43;6.97;;;;;;;7.87;89.91;100806.72;5031015;28;20121;-37
2022/12/03 07:16:42;;;;;;;14.00;6.03;;;;;;;7.91;90.19;100808.03;5030920;28;20099;-35
2022/12/03 07:19:08;;;;;;;11.85;6.90;;;;;;;7.89;90.06;100802.06;5030304;28;20076;-36
2022/12/03 07:21:34;;;;;;;13.98;6.70;;;;;;;8.21;90.32;100803.19;5030316;28;20033;-36
2022/12/03 07:23:59;;;;;;;12.43;7.18;;;;;;;8.34;88.84;100792.06;5029997;28;20584;-36
2022/12/03 07:26:25;;;;;;;17.17;7.60;;;;;;;8.36;88.46;100806.84;5030483;28;20156;-36
2022/12/03 07:28:50;;;;;;;24.15;10.05;;;;;;;8.94;98.53;100804.25;5029785;28;20048;-37
2022/12/03 07:31:16;;;;;;;16.35;7.20;;;;;;;8.19;88.72;100805.97;5029748;28;20017;-36
2022/12/03 07:33:41;;;;;;;19.52;7.55;;;;;;;8.15;89.20;100806.47;5029314;28;20041;-37
2022/12/03 07:36:08;;;;;;;15.40;7.55;;;;;;;8.08;89.82;100816.88;5029721;28;20025;-36
2022/12/03 07:38:33;;;;;;;17.38;7.97;;;;;;;7.95;90.45;100814.69;5029569;28;20022;-36
2022/12/03 07:40:59;;;;;;;16.05;8.23;;;;;;;8.05;89.48;100819.03;5028795;28;20025;-43
2022/12/03 07:43:24;;;;;;;18.48;8.27;;;;;;;8.16;89.70;100814.25;5026623;28;20022;-43
2022/12/03 07:45:50;;;;;;;16.08;7.68;;;;;;;7.88;90.37;100818.13;5029478;28;20029;-48
2022/12/03 07:48:15;;;;;;;19.17;8.35;;;;;;;7.97;90.29;100820.66;5029634;28;20120;-44
2022/12/03 07:50:40;;;;;;;14.80;7.65;;;;;;;8.06;89.34;100816.22;5028786;28;20560;-43
2022/12/03 07:53:06;;;;;;;21.33;8.73;;;;;;;8.04;89.80;100812.91;5026252;28;20022;-42
2022/12/03 07:55:31;;;;;;;18.88;8.88;;;;;;;7.94;89.71;100812.19;5029024;28;20021;-46
2022/12/03 07:57:57;;;;;;;23.25;9.57;;;;;;;7.88;91.25;100816.34;5029157;28;20021;-43
2022/12/03 08:00:22;;;;;;;19.67;9.52;;;;;;;8.07;89.53;100815.22;5029344;28;20473;-43
2022/12/03 08:02:47;;;;;;;17.40;8.52;;;;;;;8.05;89.29;100814.53;5029768;28;20025;-39
2022/12/03 08:05:13;;;;;;;20.67;10.50;;;;;;;8.12;89.12;100810.25;5031839;28;20497;-37
2022/12/03 08:07:38;;;;;;;18.98;9.95;;;;;;;8.30;88.28;100812.81;5031829;28;20029;-44
2022/12/03 08:10:05;;;;;;;21.60;10.90;;;;;;;8.05;89.10;100817.19;5032670;28;20029;-44
2022/12/03 08:12:40;;;;;;;20.25;10.82;;;;;;;8.02;90.09;100817.53;5032538;28;20041;-42
2022/12/03 08:15:15;;;;;;;17.90;10.23;;;;;;;8.19;89.00;100827.19;5032904;28;20473;-44
2022/12/03 08:17:42;;;;;;;20.92;10.65;;;;;;;8.09;89.49;100818.56;5032018;28;20027;-43
2022/12/03 08:20:19;;;;;;;18.88;10.90;;;;;;;8.41;89.17;100822.28;5032885;28;20057;-43
2022/12/03 08:22:47;;;;;;;21.05;11.25;;;;;;;8.20;88.29;100807.63;5032598;28;20033;-43
2022/12/03 08:25:28;;;;;;;24.58;11.43;;;;;;;8.51;88.47;100803.56;5032459;28;20059;-45
2022/12/03 08:28:06;;;;;;;;;;;;;;;8.72;86.80;100822.53;5032397;28;20123;-44
2022/12/03 08:30:32;;;;;;;21.00;11.25;;;;;;;8.57;87.45;100806.41;5032495;28;20383;-43
2022/12/03 08:32:58;;;;;;;18.25;10.85;;;;;;;8.41;87.45;100816.97;5026789;28;20032;-43
2022/12/03 08:35:29;;;;;;;22.52;11.48;;;;;;;8.40;88.31;100810.00;5032363;28;20029;-44
2022/12/03 08:38:08;;;;;;;23.58;12.00;;;;;;;8.41;87.46;100806.34;5032559;28;20025;-44
2022/12/03 08:40:36;;;;;;;18.67;11.43;;;;;;;8.45;88.22;100818.31;5032830;28;20029;-42
2022/12/03 08:43:17;;;;;;;20.40;11.50;;;;;;;8.67;87.29;100819.53;5032371;28;20037;-43
2022/12/03 08:45:43;;;;;;;19.27;10.93;;;;;;;8.45;87.72;100807.72;5030719;28;20033;-43
2022/12/03 08:48:17;;;;;;;20.10;11.45;;;;;;;8.52;88.04;100816.69;5031802;28;20119;-44
2022/12/03 08:50:44;;;;;;;20.42;11.57;;;;;;;8.49;87.67;100817.03;5031498;28;20026;-45
2022/12/03 08:53:12;;;;;;;20.35;11.27;;;;;;;8.64;87.67;100824.31;5031773;28;20017;-44
2022/12/03 08:55:45;;;;;;;18.95;11.10;;;;;;;8.71;86.93;100820.84;5032176;28;20025;-44
2022/12/03 08:58:20;;;;;;;19.67;10.63;;;;;;;8.78;87.31;100823.69;5031572;28;20037;-44
2022/12/03 09:00:46;;;;;;;17.75;10.13;;;;;;;8.81;86.18;100812.72;5031646;28;20064;-44
2022/12/03 09:03:17;;;;;;;17.40;9.63;;;;;;;9.00;86.72;100809.75;5032235;28;20477;-36
2022/12/03 09:05:43;;;;;;;18.60;10.45;;;;;;;9.00;86.21;100806.25;5031457;28;20040;-37
2022/12/03 09:08:08;;;;;;;17.27;9.02;;;;;;;9.20;85.60;100804.09;5031159;28;20097;-36
2022/12/03 09:10:34;;;;;;;19.67;9.82;;;;;;;9.18;85.20;100798.13;5031457;28;20393;-37
2022/12/03 09:12:59;;;;;;;13.75;8.75;;;;;;;9.43;83.92;100808.69;5032087;28;20021;-36
2022/12/03 09:15:24;;;;;;;13.23;8.32;;;;;;;9.30;83.61;100799.41;5030675;28;20063;-36
2022/12/03 09:17:50;;;;;;;15.57;8.70;;;;;;;9.26;84.07;100803.41;5031739;28;20037;-37
2022/12/03 09:20:15;;;;;;;14.85;7.47;;;;;;;9.44;83.47;100797.03;5032148;28;20595;-36
2022/12/03 09:22:41;;;;;;;11.80;7.07;;;;;;;9.06;85.07;100804.75;5031548;28;20040;-36
2022/12/03 09:25:06;;;;;;;14.07;7.88;;;;;;;9.09;84.80;100794.63;5031710;28;20438;-37
2022/12/03 09:27:32;;;;;;;15.98;7.78;;;;;;;9.63;83.76;100801.13;5031810;28;20033;-36
2022/12/03 09:29:57;;;;;;;12.38;7.10;;;;;;;9.45;83.02;100790.75;5031776;28;20112;-35
2022/12/03 09:32:23;;;;;;;13.45;6.68;;;;;;;9.21;84.16;100789.78;5031579;28;20056;-36
2022/12/03 09:34:48;;;;;;;12.93;7.22;;;;;;;9.14;83.72;100784.34;5031853;28;20025;-36
2022/12/03 09:37:14;;;;;;;10.35;6.25;;;;;;;9.01;84.67;100794.66;5031271;28;20031;-37
2022/12/03 09:39:39;;;;;;;13.50;6.97;;;;;;;9.16;84.33;100781.53;5031598;28;20112;-36
2022/12/03 09:42:04;;;;;;;10.90;6.43;;;;;;;9.06;84.53;100778.19;5031671;28;20029;-36
2022/12/03 09:44:33;;;;;;;11.35;6.53;;;;;;;9.13;84.62;100780.00;5031127;28;20121;-37
2022/12/03 09:47:03;;;;;;;14.27;6.63;;;;;;;9.33;84.26;100777.81;5031318;28;20032;-36
2022/12/03 09:49:30;;;;;;;11.65;6.50;;;;;;;9.29;83.52;100776.50;5030859;28;20029;-37
2022/12/03 09:51:59;;;;;;;14.20;7.35;;;;;;;10.00;91.72;100783.72;5031378;28;20053;-36
2022/12/03 09:54:27;;;;;;;15.25;7.00;;;;;;;10.13;85.04;100781.31;5030923;28;20057;-37
2022/12/03 09:56:54;;;;;;;12.98;6.10;;;;;;;10.17;80.76;100782.63;5031100;28;20021;-36
2022/12/03 09:59:21;;;;;;;13.02;6.80;;;;;;;9.90;82.06;100778.59;5030627;28;20087;-36
2022/12/03 10:01:47;;;;;;;12.55;6.13;;;;;;;10.56;81.49;100779.88;5030890;28;20025;-37
2022/12/03 10:04:12;;;;;;;12.52;6.47;;;;;;;10.39;80.28;100781.00;5030508;28;20022;-36
2022/12/03 10:06:39;;;;;;;11.15;5.60;;;;;;;10.62;80.23;100770.34;5030766;28;20432;-37
2022/12/03 10:09:05;;;;;;;14.75;6.35;;;;;;;10.64;78.32;100779.00;5030119;28;20036;-37
2022/12/03 10:11:33;;;;;;;16.38;6.55;;;;;;;10.86;76.85;100774.66;5030292;28;20033;-36
2022/12/03 10:13:59;;;;;;;15.45;7.40;;;;;;;10.89;76.24;100779.63;5029601;28;20140;-36
2022/12/03 10:16:26;;;;;;;13.82;6.72;;;;;;;10.27;77.98;100777.91;5029528;28;20129;-36
2022/12/03 10:18:55;;;;;;;14.93;6.85;;;;;;;10.10;77.79;100765.69;5028859;28;20075;-36
2022/12/03 10:21:29;;;;;;;15.90;7.23;;;;;;;9.78;81.33;100768.34;5030309;28;20033;-36
2022/12/03 10:24:31;;;;;;;17.10;7.22;;;;;;;10.73;79.05;100763.78;5030998;28;20292;-37
2022/12/03 10:27:00;;;;;;;18.05;7.85;;;;;;;10.29;79.48;100764.41;5017345;28;20083;-37
2022/12/03 10:29:31;;;;;;;18.73;7.78;;;;;;;9.68;81.00;100754.44;5030104;28;20018;-37
2022/12/03 10:31:58;;;;;;;19.40;7.93;;;;;;;9.75;81.75;100757.25;5030644;28;20105;-36
2022/12/03 10:34:38;;;;;;;18.67;7.63;;;;;;;9.63;81.39;100756.78;5030725;28;20091;-37
2022/12/03 10:37:14;;;;;;;17.88;7.80;;;;;;;9.63;81.29;100761.28;5029291;28;20026;-37
2022/12/03 10:40:01;;;;;;;20.42;7.95;;;;;;;9.68;81.52;100754.44;5029817;28;20087;-37
2022/12/03 10:42:32;;;;;;;26.38;8.80;;;;;;;9.62;82.08;100755.13;5030468;28;20017;-37
2022/12/03 10:45:21;;;;;;;26.40;8.57;;;;;;;9.36;83.67;100753.56;5030567;28;20022;-36
2022/12/03 10:48:09;;;;;;;30.63;9.35;;;;;;;9.62;82.03;100759.63;5030177;28;20128;-36
2022/12/03 10:50:35;;;;;;;28.08;9.45;;;;;;;9.46;82.77;100757.84;5030181;28;20508;-36
2022/12/03 10:53:01;;;;;;;30.33;9.65;;;;;;;9.45;83.47;100751.72;5030159;28;20033;-36
2022/12/03 10:55:32;;;;;;;25.63;9.27;;;;;;;9.42;84.43;100754.69;5030535;28;20041;-36
2022/12/03 10:57:58;;;;;;;27.63;9.73;;;;;;;9.41;83.42;100755.72;5029743;28;20036;-37
2022/12/03 11:00:23;;;;;;;26.67;8.63;;;;;;;9.34;84.55;100760.06;5030298;28;20029;-38
2022/12/03 11:02:49;;;;;;;29.70;8.90;;;;;;;9.31;83.82;100758.56;5030455;28;20035;-36
2022/12/03 11:05:17;;;;;;;20.52;7.90;;;;;;;9.36;83.18;100766.00;5030220;28;20486;-36
2022/12/03 11:07:43;;;;;;;26.77;9.27;;;;;;;9.33;83.79;100755.75;5029854;28;20442;-35
2022/12/03 11:10:14;;;;;;;22.90;9.02;;;;;;;9.28;84.36;100753.59;5029895;28;20485;-37
2022/12/03 11:12:40;;;;;;;21.25;8.70;;;;;;;9.25;84.92;100758.41;5030516;28;20116;-37
2022/12/03 11:15:12;;;;;;;24.10;8.05;;;;;;;9.29;84.47;100754.41;5030164;28;20121;-36
2022/12/03 11:17:42;;;;;;;16.73;7.05;;;;;;;9.33;84.08;100756.56;5029694;28;20044;-36
2022/12/03 11:20:31;;;;;;;13.50;8.05;;;;;;;9.38;84.18;100748.06;5029996;28;20064;-36
2022/12/03 11:22:57;;;;;;;11.95;7.70;;;;;;;9.42;83.57;100756.53;5029204;28;20033;-37
2022/12/03 11:25:28;;;;;;;16.17;7.90;;;;;;;9.47;83.96;100751.53;5029486;28;20084;-36
2022/12/03 11:28:14;;;;;;;13.63;8.35;;;;;;;9.49;84.45;100746.88;5029468;28;20435;-36
2022/12/03 11:30:57;;;;;;;12.98;8.35;;;;;;;9.51;83.88;100751.03;5029613;28;20505;-37
2022/12/03 11:33:24;;;;;;;14.00;8.57;;;;;;;9.18;85.16;100745.00;5029784;28;20029;-36
2022/12/03 11:36:01;;;;;;;13.40;8.57;;;;;;;9.56;83.91;100750.53;5029670;28;20542;-36
2022/12/03 11:38:36;;;;;;;12.00;7.95;;;;;;;9.30;84.13;100751.59;5031432;28;20029;-36
2022/12/03 11:41:28;;;;;;;11.25;7.70;;;;;;;9.28;84.64;100744.78;5034071;28;20149;-36
2022/12/03 11:43:56;;;;;;;12.07;7.35;;;;;;;9.17;84.70;100749.44;5033884;28;20159;-36
2022/12/03 11:46:26;;;;;;;11.75;6.97;;;;;;;9.52;83.32;100755.34;5033820;28;20478;-36
2022/12/03 11:48:54;;;;;;;12.82;7.28;;;;;;;9.27;83.51;100756.41;5033027;28;20432;-36
2022/12/03 11:51:23;;;;;;;12.18;7.00;;;;;;;9.49;82.95;100750.38;5033092;28;20184;-37